• Join FlightAware (Why Join?)
  • Login
  • US Flag 
01:42AM EST


 

Airport Tracker/Info


-or-


 

Live Flight TrackerFlight Track Log ✈ FLG3757 ✈ 01-Jul-2014 ✈ KBGM - KDTW

Flight Track Log - Related Links

Times and Time Zones

All times are in EDT time to prevent confusion due to time zone crossing. See the FLG3757 flight status page for this flight to view local times or setup timezone preferences in your user account.

Time Position Orientation Groundspeed Altitude Reporting Facility
EDT Latitude Longitude Course Direction KTS MPH feet Rate Location/Type
06:18AM 42.1494 -75.9944 292° West 211 243 4,400  Level Cleveland Center
06:19AM 42.1758 -76.0817 292° West 236 272 6,000 1,800 Climbing Cleveland Center
06:20AM 42.2072 -76.1817 293° West 268 308 8,100 2,040 Climbing Cleveland Center
06:21AM 42.2350 -76.2744 292° West 277 319 10,200 1,560 Climbing Cleveland Center
06:22AM 42.2672 -76.3786 293° West 295 339 11,300 1,200 Climbing Cleveland Center
06:23AM 42.3033 -76.5017 292° West 328 377 12,700 1,320 Climbing Cleveland Center
06:24AM 42.3428 -76.6256 293° West 350 403 14,100 1,320 Climbing Cleveland Center
06:25AM 42.3803 -76.7519 292° West 361 415 15,500 1,380 Climbing Cleveland Center
06:26AM 42.4244 -76.9039 292° West 363 418 17,000 1,080 Climbing Cleveland Center
06:27AM 42.4342 -77.0439 275° West 374 430 17,800 780 Climbing Cleveland Center
06:28AM 42.4467 -77.1842 277° West 374 430 18,600 780 Climbing Cleveland Center
06:29AM 42.4597 -77.3272 277° West 377 434 19,400 780 Climbing Cleveland Center
06:30AM 42.4711 -77.4669 276° West 384 442 20,200 780 Climbing Cleveland Center
06:31AM 42.4831 -77.6111 276° West 384 442 21,000 960 Climbing Cleveland Center
06:32AM 42.4958 -77.7536 277° West 384 442 22,200 1,080 Climbing Cleveland Center
06:33AM 42.5075 -77.9064 276° West 379 436 23,200 900 Climbing Cleveland Center
06:34AM 42.5186 -78.0486 276° West 379 436 24,100 780 Climbing Cleveland Center
06:35AM 42.5297 -78.1892 276° West 379 436 24,900 720 Climbing Cleveland Center
06:36AM 42.5403 -78.3300 276° West 378 435 25,600 600 Climbing Cleveland Center
06:37AM 42.5514 -78.4708 276° West 377 434 26,200 540 Climbing Cleveland Center
06:38AM 42.5636 -78.6158 277° West 385 443 26,700 480 Climbing Cleveland Center
06:39AM 42.5742 -78.7614 276° West 388 447 27,200 540 Climbing Cleveland Center
06:40AM 42.5831 -78.9078 275° West 391 450 27,800 360 Climbing Cleveland Center
06:41AM 42.5956 -79.0531 277° West 391 450 28,000 60 Climbing Cleveland Center
06:42AM 42.6431 -79.1875 296° West 400 460 28,000  Level Cleveland Center
06:43AM 42.6931 -79.3181 298° West 388 447 28,000  Level Cleveland Center
06:44AM 42.7133 -79.4872 279° West 390 449 28,000  Level Cleveland Center
06:45AM 42.7142 -79.6350 270° West 389 448 28,000  Level Cleveland Center
06:46AM 42.7136 -79.7867 270° West 400 460 28,000  Level Cleveland Center
06:47AM 42.7133 -79.9406 270° West 407 468 28,000  Level Cleveland Center
06:48AM 42.7119 -80.0925 269° West 412 474 28,000  Level Cleveland Center
06:49AM 42.7122 -80.2467 270° West 412 474 28,000  Level Cleveland Center
06:50AM 42.7106 -80.3942 269° West 394 453 28,000  Level Cleveland Center
06:51AM 42.7092 -80.5422 269° West 394 453 28,000  Level Cleveland Center
06:52AM 42.7078 -80.6925 269° West 394 453 28,000  Level Cleveland Center
06:53AM 42.7058 -80.8744 269° West 404 465 28,000  Level Cleveland Center
06:54AM 42.6906 -81.0231 262° West 399 459 28,000 -600 Level Cleveland Center
06:55AM 42.6736 -81.1717 261° West 399 459 26,800 -1,440 Descending Cleveland Center
06:56AM 42.6583 -81.3153 262° West 388 447 25,100 -1,620 Descending Cleveland Center
06:57AM 42.6417 -81.4517 261° West 369 425 23,500 -1,500 Descending Cleveland Center
06:58AM 42.6264 -81.5861 261° West 362 417 22,100 -1,380 Descending Cleveland Center
06:59AM 42.6111 -81.7119 261° West 343 395 20,700 -1,440 Descending Cleveland Center
07:00AM 42.5947 -81.8442 260° West 338 389 19,200 -1,500 Descending Cleveland Center
07:01AM 42.5806 -81.9664 261° West 332 382 17,700 -1,380 Descending Cleveland Center
07:03AM 42.5653 -82.0861 260° West 326 375 16,400 -1,320 Descending Cleveland Center
07:04AM 42.5503 -82.2031 260° West 317 365 15,100 -1,380 Descending Cleveland Center
07:04AM 42.5408 -82.2819 261° West 304 350 14,200 -1,320 Descending Cleveland Center
07:05AM 42.5372 -82.3150 262° West 303 349 13,800 -1,200 Descending Cleveland Center
07:05AM 42.5272 -82.3906 260° West 295 339 13,000 -1,200 Descending Cleveland Center
07:06AM 42.5233 -82.4239 261° West 296 341 12,600 -1,020 Descending Cleveland Center
07:06AM 42.5128 -82.5075 260° West 292 336 12,000 -600 Descending Cleveland Center
07:07AM 42.5100 -82.5308 261° West 293 337 12,000 -300 Level Cleveland Center
07:07AM 42.4844 -82.6114 247° West 301 346 11,700 -540 Descending Cleveland Center
07:08AM 42.4767 -82.6347 246° West 297 342 11,500 -1,020 Descending Cleveland Center
07:08AM 42.4547 -82.7064 247° West 259 298 10,700 -1,200 Descending Cleveland Center
07:09AM 42.4503 -82.7269 254° West 266 306 10,300 -1,920 Descending Cleveland Center
07:09AM 42.4350 -82.8028 255° West 246 283 8,600 -2,280 Descending Cleveland Center
07:10AM 42.4283 -82.8325 253° West 249 287 8,000 -1,800 Descending Cleveland Center
07:10AM 42.4164 -82.8853 253° West 250 288 7,000 -1,800 Descending Cleveland Center
07:11AM 42.4078 -82.9253 254° West 252 290 6,200 -1,020 Descending Cleveland Center
07:11AM 42.3950 -82.9783 252° West 258 297 6,000 -240 Descending Cleveland Center
07:12AM 42.3872 -83.0150 254° West 253 291 6,000 -840 Level Cleveland Center
07:12AM 42.3733 -83.0714 252° West 245 282 5,200 -1,500 Descending Cleveland Center
07:13AM 42.3664 -83.1011 252° West 248 285 4,500 -1,800 Descending Cleveland Center
07:13AM 42.3500 -83.1586 249° West 243 280 3,400 -1,500 Descending Cleveland Center
07:14AM 42.3433 -83.1853 251° West 245 282 3,000 -600 Descending Cleveland Center
07:14AM 42.3233 -83.2311 239° Southwest 192 221 2,800 -300 Descending Cleveland Center
07:15AM 42.3158 -83.2503 242° Southwest 203 234 2,700 -540 Descending Cleveland Center
07:15AM 42.2881 -83.2828 221° Southwest 165 190 2,200 -720 Descending Cleveland Center
07:16AM 42.2803 -83.2908 217° Southwest 175 201 2,000 -720 Descending Cleveland Center
07:16AM 42.2525 -83.3089 206° Southwest 123 142 1,500 -720 Descending Cleveland Center
07:17AM 42.2472 -83.3139 215° Southwest 142 163 1,300 -720 Descending Cleveland Center
07:17AM 42.2214 -83.3325 208° Southwest 133 153 800 -420 Descending Cleveland Center
07:18AM 42.2103 -83.3411 210° Southwest 134 154 900 240 Climbing Cleveland Center
07:20AM 42.2000 -83.3500 236° Southwest  Level FlightAware Approximate
07:27AM 42.2124 -83.3534 236° Southwest  Level Estimated